createdAt,value
2023-04-27T00:01:15.674Z,12.94
2023-04-27T00:03:43.192Z,12.51
2023-04-27T00:06:10.186Z,12.68
2023-04-27T00:08:37.515Z,12.99
2023-04-27T00:11:04.714Z,12.65
2023-04-27T00:13:31.554Z,12.83
2023-04-27T00:16:00.950Z,12.81
2023-04-27T00:18:27.860Z,12.80
2023-04-27T00:20:54.543Z,12.77
2023-04-27T00:23:21.560Z,12.74
2023-04-27T00:25:48.326Z,12.73
2023-04-27T00:28:15.521Z,12.52
2023-04-27T00:30:42.348Z,12.21
2023-04-27T00:33:09.073Z,12.40
2023-04-27T00:35:36.010Z,12.62
2023-04-27T00:38:03.016Z,12.59
2023-04-27T00:40:29.921Z,12.48
2023-04-27T00:42:56.892Z,12.65
2023-04-27T00:45:25.331Z,12.51
2023-04-27T00:47:52.200Z,12.58
2023-04-27T00:50:27.542Z,12.60
2023-04-27T00:52:54.676Z,12.13
2023-04-27T00:55:21.426Z,12.40
2023-04-27T00:57:48.180Z,12.41
2023-04-27T01:00:15.618Z,12.40
2023-04-27T01:02:42.922Z,12.49
2023-04-27T01:05:10.018Z,12.45
2023-04-27T01:07:40.705Z,12.39
2023-04-27T01:10:08.313Z,12.36
2023-04-27T01:12:35.714Z,12.34
2023-04-27T01:15:06.355Z,11.97
2023-04-27T01:17:33.290Z,12.15
2023-04-27T01:20:00.948Z,12.31
2023-04-27T01:22:27.696Z,12.09
2023-04-27T01:24:54.784Z,11.90
2023-04-27T01:27:21.962Z,12.04
2023-04-27T01:29:48.842Z,12.09
2023-04-27T01:32:15.780Z,12.24
2023-04-27T01:34:42.752Z,12.23
2023-04-27T01:37:09.542Z,12.03
2023-04-27T01:39:36.252Z,12.06
2023-04-27T01:42:03.988Z,12.06
2023-04-27T01:44:30.838Z,12.20
2023-04-27T01:46:58.232Z,11.97
2023-04-27T01:49:25.050Z,11.51
2023-04-27T01:51:51.779Z,11.85
2023-04-27T01:54:18.597Z,11.61
2023-04-27T01:56:46.169Z,11.53
2023-04-27T01:59:13.219Z,11.72
2023-04-27T02:01:41.303Z,11.76
2023-04-27T02:04:08.228Z,11.68
2023-04-27T02:06:35.610Z,11.70
2023-04-27T02:09:02.540Z,11.73
2023-04-27T02:11:29.959Z,11.65
2023-04-27T02:13:56.917Z,11.26
2023-04-27T02:16:31.172Z,11.71
2023-04-27T02:18:59.503Z,11.69
2023-04-27T02:21:26.798Z,11.62
2023-04-27T02:23:53.555Z,11.52
2023-04-27T02:26:22.152Z,11.39
2023-04-27T02:28:50.467Z,11.35
2023-04-27T02:31:17.607Z,11.58
2023-04-27T02:33:46.071Z,11.55
2023-04-27T02:36:12.835Z,11.75
2023-04-27T02:38:39.606Z,11.56
2023-04-27T02:41:06.345Z,11.68
2023-04-27T02:43:34.156Z,11.48
2023-04-27T02:46:04.951Z,11.58
2023-04-27T02:48:31.908Z,11.47
2023-04-27T02:50:59.103Z,11.56
2023-04-27T02:53:25.971Z,11.45
2023-04-27T02:55:52.624Z,11.24
2023-04-27T02:58:20.105Z,10.96
2023-04-27T03:00:48.634Z,11.29
2023-04-27T03:03:16.137Z,11.20
2023-04-27T03:05:42.981Z,11.15
2023-04-27T03:08:09.785Z,11.49
2023-04-27T03:10:37.018Z,10.91
2023-04-27T03:13:03.754Z,11.32
2023-04-27T03:15:30.976Z,11.10
2023-04-27T03:17:57.801Z,11.32
2023-04-27T03:20:24.724Z,11.31
2023-04-27T03:22:53.594Z,11.30
2023-04-27T03:25:20.547Z,11.50
2023-04-27T03:27:47.336Z,11.16
2023-04-27T03:30:14.462Z,11.19
2023-04-27T03:32:41.730Z,11.21
2023-04-27T03:35:09.853Z,11.50
2023-04-27T03:37:36.786Z,11.26
2023-04-27T03:40:07.520Z,11.09
2023-04-27T03:42:34.533Z,11.27
2023-04-27T03:45:03.103Z,11.12
2023-04-27T03:47:29.937Z,11.10
2023-04-27T03:49:57.249Z,11.00
2023-04-27T03:52:24.988Z,10.76
2023-04-27T03:54:52.713Z,11.07
2023-04-27T03:57:19.603Z,10.98
2023-04-27T03:59:47.016Z,11.14
2023-04-27T04:02:14.561Z,11.45
2023-04-27T04:04:42.820Z,11.01
2023-04-27T04:07:09.839Z,11.13
2023-04-27T04:09:36.641Z,11.23
2023-04-27T04:12:03.840Z,10.87
2023-04-27T04:14:30.820Z,11.23
2023-04-27T04:16:57.821Z,11.40
2023-04-27T04:19:24.627Z,10.97
2023-04-27T04:21:51.523Z,10.86
2023-04-27T04:24:18.981Z,10.97
2023-04-27T04:26:45.952Z,11.14
2023-04-27T04:29:13.083Z,10.84
2023-04-27T04:31:40.157Z,10.95
2023-04-27T04:34:10.513Z,11.09
2023-04-27T04:36:38.205Z,10.87
2023-04-27T04:39:05.451Z,10.72
2023-04-27T04:41:33.263Z,10.65
2023-04-27T04:44:00.888Z,10.80
2023-04-27T04:46:28.832Z,10.89
2023-04-27T04:48:56.955Z,10.84
2023-04-27T04:51:24.049Z,10.96
2023-04-27T04:53:50.834Z,11.02
2023-04-27T04:56:17.618Z,10.68
2023-04-27T04:58:44.589Z,10.73
2023-04-27T05:01:12.026Z,11.25
2023-04-27T05:03:38.819Z,11.00
2023-04-27T05:06:05.997Z,10.69
2023-04-27T05:08:33.267Z,10.76
2023-04-27T05:11:00.791Z,10.80
2023-04-27T05:13:28.354Z,10.98
2023-04-27T05:15:55.437Z,10.51
2023-04-27T05:18:22.224Z,10.10
2023-04-27T05:20:49.483Z,10.79
2023-04-27T05:23:16.806Z,10.47
2023-04-27T05:25:43.944Z,10.17
2023-04-27T05:28:11.017Z,10.29
2023-04-27T05:30:38.174Z,10.23
2023-04-27T05:33:05.318Z,10.22
2023-04-27T05:35:33.631Z,10.36
2023-04-27T05:38:00.911Z,10.66
2023-04-27T05:40:27.934Z,10.69
2023-04-27T05:42:54.863Z,10.18
2023-04-27T05:45:22.013Z,10.89
2023-04-27T05:47:49.205Z,12.46
2023-04-27T05:50:16.611Z,14.11
2023-04-27T05:52:43.529Z,14.79
2023-04-27T05:55:10.977Z,16.90
2023-04-27T05:57:40.519Z,18.59
2023-04-27T06:00:11.404Z,19.38
2023-04-27T06:02:41.533Z,18.27
2023-04-27T06:05:09.100Z,18.89
2023-04-27T06:07:37.590Z,18.54
2023-04-27T06:10:05.437Z,18.10
2023-04-27T06:12:32.633Z,18.37
2023-04-27T06:15:00.199Z,17.87
2023-04-27T06:17:27.063Z,19.15
2023-04-27T06:19:53.977Z,19.60
2023-04-27T06:22:21.120Z,20.52
2023-04-27T06:24:48.286Z,21.12
2023-04-27T06:27:15.828Z,22.57
2023-04-27T06:29:50.041Z,22.69
2023-04-27T06:32:17.194Z,19.95
2023-04-27T06:34:44.212Z,19.19
2023-04-27T06:37:11.354Z,18.79
2023-04-27T06:39:46.965Z,18.19
2023-04-27T06:42:20.890Z,18.93
2023-04-27T06:44:50.587Z,18.70
2023-04-27T06:47:17.821Z,18.24
2023-04-27T06:49:44.942Z,19.34
2023-04-27T06:52:13.149Z,19.27
2023-04-27T06:54:40.425Z,19.45
2023-04-27T06:57:07.663Z,18.82
2023-04-27T06:59:34.964Z,19.79
2023-04-27T07:02:02.010Z,20.20
2023-04-27T07:04:30.620Z,18.37
2023-04-27T07:06:58.097Z,19.62
2023-04-27T07:09:27.732Z,16.59
2023-04-27T07:11:55.547Z,17.41
2023-04-27T07:14:22.905Z,16.49
2023-04-27T07:16:50.901Z,15.86
2023-04-27T07:19:17.889Z,15.45
2023-04-27T07:21:44.973Z,15.90
2023-04-27T07:24:11.825Z,16.16
2023-04-27T07:26:41.591Z,15.95
2023-04-27T07:29:25.714Z,15.24
2023-04-27T07:31:57.140Z,15.95
2023-04-27T07:34:24.234Z,16.39
2023-04-27T07:36:54.350Z,16.11
2023-04-27T07:39:21.767Z,16.32
2023-04-27T07:41:50.303Z,17.14
2023-04-27T07:44:21.941Z,17.18
2023-04-27T07:46:49.746Z,17.01
2023-04-27T07:49:16.957Z,17.28
2023-04-27T07:51:43.894Z,16.94
2023-04-27T07:54:10.882Z,17.12
2023-04-27T07:56:40.875Z,16.86
2023-04-27T07:59:08.092Z,16.73
2023-04-27T08:01:35.127Z,16.02
2023-04-27T08:04:02.315Z,16.20
2023-04-27T08:06:30.030Z,15.20
2023-04-27T08:09:00.937Z,14.78
2023-04-27T08:11:30.812Z,15.75
2023-04-27T08:13:57.805Z,16.55
2023-04-27T08:16:25.130Z,16.99
2023-04-27T08:18:52.376Z,16.39
2023-04-27T08:21:19.274Z,16.50
2023-04-27T08:23:46.188Z,16.87
2023-04-27T08:26:16.641Z,17.51
2023-04-27T08:28:43.518Z,16.72
2023-04-27T08:31:10.297Z,17.04
2023-04-27T08:33:37.330Z,17.53
2023-04-27T08:36:04.562Z,16.76
2023-04-27T08:38:31.448Z,16.19
2023-04-27T08:41:02.679Z,17.33
2023-04-27T08:43:38.101Z,16.87
2023-04-27T08:46:04.932Z,16.96
2023-04-27T08:48:31.752Z,16.98
2023-04-27T08:50:59.839Z,17.04
2023-04-27T08:53:26.755Z,17.04
2023-04-27T08:55:55.238Z,16.24
2023-04-27T08:58:22.034Z,15.86
2023-04-27T09:00:50.744Z,15.73
2023-04-27T09:03:23.110Z,15.73
2023-04-27T09:06:03.550Z,16.70
2023-04-27T09:08:49.952Z,16.91
2023-04-27T09:11:29.509Z,15.83
2023-04-27T09:13:58.514Z,16.17
2023-04-27T09:16:26.872Z,16.34
2023-04-27T09:18:54.018Z,15.65
2023-04-27T09:21:24.598Z,16.81
2023-04-27T09:23:51.890Z,16.27
2023-04-27T09:26:23.632Z,16.27
2023-04-27T09:28:52.599Z,16.55
2023-04-27T09:31:19.716Z,17.10
2023-04-27T09:33:47.558Z,16.93
2023-04-27T09:36:15.319Z,16.88
2023-04-27T09:38:42.187Z,15.87
2023-04-27T09:41:09.038Z,15.84
2023-04-27T09:43:37.206Z,16.57
2023-04-27T09:46:04.785Z,15.66
2023-04-27T09:48:32.049Z,16.84
2023-04-27T09:50:58.988Z,16.44
2023-04-27T09:53:39.096Z,15.95
2023-04-27T09:56:36.501Z,16.22
2023-04-27T09:59:38.703Z,16.48
2023-04-27T10:02:20.894Z,16.22
2023-04-27T10:05:36.104Z,16.73
2023-04-27T10:08:07.203Z,17.06
2023-04-27T10:10:50.213Z,17.27
2023-04-27T10:13:25.397Z,16.55
2023-04-27T10:15:52.932Z,16.94
2023-04-27T10:18:32.267Z,17.15
2023-04-27T10:21:11.094Z,16.46
2023-04-27T10:23:51.110Z,15.95
2023-04-27T10:26:28.179Z,16.72
2023-04-27T10:29:11.374Z,16.20
2023-04-27T10:31:44.835Z,16.30
2023-04-27T10:34:16.704Z,15.78
2023-04-27T10:36:44.949Z,16.33
2023-04-27T10:39:36.001Z,16.49
2023-04-27T10:42:11.563Z,17.05
2023-04-27T10:44:38.992Z,16.90
2023-04-27T10:47:20.267Z,16.79
2023-04-27T10:49:47.021Z,17.31
2023-04-27T10:52:13.798Z,17.36
2023-04-27T10:54:46.526Z,17.48
2023-04-27T10:57:13.586Z,17.60
2023-04-27T10:59:50.555Z,17.37
2023-04-27T11:02:17.783Z,17.41
2023-04-27T11:04:44.734Z,17.18
2023-04-27T11:07:12.377Z,17.27
2023-04-27T11:09:40.603Z,17.51
2023-04-27T11:12:08.304Z,18.15
2023-04-27T11:14:37.476Z,17.62
2023-04-27T11:17:06.308Z,18.26
2023-04-27T11:19:33.328Z,17.82
2023-04-27T11:22:06.804Z,18.14
2023-04-27T11:24:37.163Z,17.52
2023-04-27T11:27:04.145Z,17.36
2023-04-27T11:29:39.046Z,17.96
2023-04-27T11:32:06.167Z,17.38
2023-04-27T11:34:37.078Z,17.99
2023-04-27T11:39:41.692Z,17.67
2023-04-27T11:42:35.120Z,17.52
2023-04-27T11:45:06.279Z,17.87
2023-04-27T11:47:34.221Z,17.51
2023-04-27T11:50:06.560Z,18.12
2023-04-27T11:52:37.009Z,18.63
2023-04-27T11:55:05.012Z,18.04
2023-04-27T11:57:33.516Z,18.26
2023-04-27T12:00:02.340Z,17.28
2023-04-27T12:02:43.001Z,18.40
2023-04-27T12:05:12.946Z,17.24
2023-04-27T12:07:43.885Z,17.19
2023-04-27T12:10:11.036Z,17.51
2023-04-27T12:12:38.112Z,17.13
2023-04-27T12:15:05.314Z,17.90
2023-04-27T12:17:32.989Z,17.22
2023-04-27T12:19:59.794Z,17.65
2023-04-27T12:22:28.225Z,17.29
2023-04-27T12:24:56.154Z,17.52
2023-04-27T12:27:23.119Z,16.86
2023-04-27T12:29:54.422Z,16.95
2023-04-27T12:32:23.692Z,17.74
2023-04-27T12:34:50.990Z,17.31
2023-04-27T12:37:17.837Z,17.66
2023-04-27T12:39:44.899Z,16.85
2023-04-27T12:42:12.376Z,17.38
2023-04-27T12:44:43.863Z,17.57
2023-04-27T12:47:20.051Z,17.57
2023-04-27T12:49:55.586Z,17.49
2023-04-27T13:51:07.413Z,17.94
2023-04-27T13:56:38.190Z,17.89
2023-04-27T13:59:05.341Z,18.28
2023-04-27T14:01:36.588Z,18.42
2023-04-27T14:04:03.950Z,17.88
2023-04-27T14:06:32.219Z,18.10
2023-04-27T14:08:59.315Z,17.91
2023-04-27T14:11:26.483Z,18.50
2023-04-27T14:13:54.835Z,18.62
2023-04-27T14:16:22.121Z,18.60
2023-04-27T14:18:52.655Z,18.72
2023-04-27T14:21:20.512Z,18.16
2023-04-27T14:23:47.702Z,18.11
2023-04-27T14:26:15.259Z,18.01
2023-04-27T14:28:42.113Z,17.65
2023-04-27T14:31:12.509Z,18.28
2023-04-27T14:33:39.448Z,18.08
2023-04-27T14:36:06.474Z,18.02
2023-04-27T14:38:34.779Z,18.69
2023-04-27T14:41:03.695Z,18.12
2023-04-27T14:43:31.780Z,18.46
2023-04-27T14:46:05.091Z,18.08
2023-04-27T14:48:39.150Z,18.57
2023-04-27T14:51:06.701Z,18.36
2023-04-27T14:53:33.534Z,18.83
2023-04-27T14:56:00.437Z,18.23
2023-04-27T14:58:27.536Z,18.27
2023-04-27T15:00:54.265Z,18.13
2023-04-27T15:03:21.497Z,18.22
2023-04-27T15:05:48.372Z,18.53
2023-04-27T15:08:16.319Z,18.52
2023-04-27T15:10:43.194Z,18.24
2023-04-27T15:13:09.954Z,18.32
2023-04-27T15:15:37.173Z,18.06
2023-04-27T15:18:04.422Z,18.78
2023-04-27T15:20:31.438Z,19.11
2023-04-27T15:23:01.001Z,18.79
2023-04-27T15:25:28.112Z,19.05
2023-04-27T15:27:55.114Z,18.89
2023-04-27T15:30:21.943Z,18.63
2023-04-27T15:32:49.666Z,18.93
2023-04-27T15:35:16.519Z,18.52
2023-04-27T15:37:44.328Z,19.15
2023-04-27T15:40:11.761Z,18.82
2023-04-27T15:42:38.584Z,19.39
2023-04-27T15:45:08.013Z,18.97
2023-04-27T15:47:36.993Z,18.36
2023-04-27T15:50:04.665Z,18.73
2023-04-27T15:52:31.710Z,18.88
2023-04-27T15:54:58.707Z,18.68
2023-04-27T15:57:26.086Z,19.39
2023-04-27T15:59:52.716Z,19.00
2023-04-27T16:02:19.519Z,18.92
2023-04-27T16:04:46.327Z,18.45
2023-04-27T16:07:13.254Z,18.00
2023-04-27T16:09:40.037Z,18.71
2023-04-27T16:12:07.010Z,18.59
2023-04-27T16:14:34.078Z,18.54
2023-04-27T16:17:04.002Z,18.50
2023-04-27T16:19:30.999Z,18.61
2023-04-27T16:21:57.697Z,18.98
2023-04-27T16:24:25.920Z,18.45
2023-04-27T16:26:52.811Z,18.17
2023-04-27T16:29:19.770Z,18.17
2023-04-27T16:31:50.535Z,18.48
2023-04-27T16:34:17.368Z,18.98
2023-04-27T16:36:44.544Z,18.57
2023-04-27T16:39:11.706Z,18.42
2023-04-27T16:41:38.727Z,18.66
2023-04-27T16:44:05.503Z,18.86
2023-04-27T16:46:32.389Z,18.35
2023-04-27T16:48:59.201Z,17.99
2023-04-27T16:51:26.862Z,18.08
2023-04-27T16:53:54.201Z,18.50
2023-04-27T16:56:33.860Z,18.56
2023-04-27T16:59:01.343Z,18.72
2023-04-27T17:01:30.058Z,18.57
2023-04-27T17:03:57.860Z,18.68
2023-04-27T17:06:26.408Z,18.97
2023-04-27T17:08:57.017Z,18.97
2023-04-27T17:11:24.362Z,18.57
2023-04-27T17:13:51.161Z,18.15
2023-04-27T17:16:20.243Z,18.14
2023-04-27T17:18:47.323Z,18.35
2023-04-27T17:21:14.425Z,18.31
2023-04-27T17:23:41.590Z,18.20
2023-04-27T17:26:08.987Z,18.34
2023-04-27T17:28:36.220Z,17.85
2023-04-27T17:31:03.602Z,18.27
2023-04-27T17:33:30.525Z,18.07
2023-04-27T17:35:57.580Z,17.80
2023-04-27T17:38:24.444Z,18.02
2023-04-27T17:40:51.187Z,17.85
2023-04-27T17:43:21.089Z,18.28
2023-04-27T17:45:51.127Z,18.07
2023-04-27T17:48:18.348Z,18.20
2023-04-27T17:50:45.298Z,18.09
2023-04-27T17:53:13.193Z,18.03
2023-04-27T17:55:40.007Z,17.83
2023-04-27T17:58:07.203Z,18.06
2023-04-27T18:00:34.158Z,18.10
2023-04-27T18:03:01.221Z,18.32
2023-04-27T18:05:28.345Z,18.25
2023-04-27T18:08:01.335Z,18.42
2023-04-27T18:10:39.368Z,18.44
2023-04-27T18:13:06.389Z,18.12
2023-04-27T18:15:33.249Z,18.31
2023-04-27T18:18:00.237Z,18.49
2023-04-27T18:20:28.053Z,18.28
2023-04-27T18:22:55.058Z,18.38
2023-04-27T18:25:21.882Z,18.57
2023-04-27T18:27:55.253Z,18.29
2023-04-27T18:30:22.939Z,18.42
2023-04-27T18:32:50.058Z,18.19
2023-04-27T18:35:16.955Z,18.19
2023-04-27T18:37:48.398Z,17.97
2023-04-27T18:40:19.691Z,18.30
2023-04-27T18:42:50.104Z,18.28
2023-04-27T18:45:16.932Z,18.50
2023-04-27T18:47:43.790Z,18.31
2023-04-27T18:50:13.148Z,18.31
2023-04-27T18:52:39.937Z,18.43
2023-04-27T18:55:08.896Z,18.29
2023-04-27T18:57:36.135Z,18.46
2023-04-27T19:00:08.225Z,18.22
2023-04-27T19:02:35.592Z,18.01
2023-04-27T19:05:12.144Z,17.98
2023-04-27T19:07:40.775Z,18.30
2023-04-27T19:10:08.271Z,17.87
2023-04-27T19:12:35.222Z,18.24
2023-04-27T19:15:02.374Z,18.39
2023-04-27T19:17:29.312Z,18.32
2023-04-27T19:19:56.196Z,18.28
2023-04-27T19:22:24.142Z,18.36
2023-04-27T19:24:51.265Z,18.42
2023-04-27T19:27:18.104Z,18.40
2023-04-27T19:29:56.330Z,18.01
2023-04-27T19:32:28.857Z,18.31
2023-04-27T19:34:57.093Z,18.25
2023-04-27T19:37:25.048Z,18.27
2023-04-27T19:39:51.889Z,18.14
2023-04-27T19:42:18.768Z,18.40
2023-04-27T19:44:45.572Z,18.01
2023-04-27T19:47:12.453Z,18.22
2023-04-27T19:49:39.648Z,17.97
2023-04-27T19:52:07.535Z,18.00
2023-04-27T19:54:36.092Z,17.82
2023-04-27T19:57:04.225Z,17.92
2023-04-27T19:59:31.816Z,17.40
2023-04-27T20:01:58.752Z,17.76
2023-04-27T20:04:26.216Z,17.58
2023-04-27T20:06:53.248Z,17.39
2023-04-27T20:09:20.164Z,16.79
2023-04-27T20:11:47.043Z,17.54
2023-04-27T20:14:14.145Z,17.37
2023-04-27T20:16:41.873Z,17.52
2023-04-27T20:19:10.880Z,17.05
2023-04-27T20:21:37.900Z,17.49
2023-04-27T20:24:05.059Z,17.69
2023-04-27T20:26:31.809Z,17.24
2023-04-27T20:28:59.206Z,17.50
2023-04-27T20:31:26.995Z,17.64
2023-04-27T20:33:54.260Z,17.59
2023-04-27T20:36:23.054Z,17.60
2023-04-27T20:38:50.196Z,16.90
2023-04-27T20:41:17.467Z,17.22
2023-04-27T20:43:44.802Z,16.95
2023-04-27T20:46:11.886Z,17.29
2023-04-27T20:48:38.846Z,17.00
2023-04-27T20:51:13.160Z,16.83
2023-04-27T20:53:40.261Z,16.88
2023-04-27T20:56:09.638Z,16.75
2023-04-27T20:58:36.400Z,16.41
2023-04-27T21:01:03.366Z,16.27
2023-04-27T21:03:30.348Z,16.80
2023-04-27T21:05:57.114Z,16.99
2023-04-27T21:08:26.181Z,17.30
2023-04-27T21:10:53.082Z,16.91
2023-04-27T21:13:22.597Z,16.89
2023-04-27T21:15:49.635Z,16.37
2023-04-27T21:18:28.959Z,16.71
2023-04-27T21:21:05.527Z,16.80
2023-04-27T21:23:36.776Z,16.22
2023-04-27T21:26:15.018Z,16.24
2023-04-27T21:28:45.774Z,16.69
2023-04-27T21:31:12.876Z,16.82
2023-04-27T21:33:42.352Z,16.80
2023-04-27T21:36:10.700Z,16.79
2023-04-27T21:38:49.205Z,16.51
2023-04-27T21:41:18.119Z,16.94
2023-04-27T21:43:45.424Z,16.67
2023-04-27T21:46:15.013Z,16.49
2023-04-27T21:48:41.866Z,16.69
2023-04-27T21:51:08.663Z,16.60
2023-04-27T21:53:35.487Z,16.59
2023-04-27T21:56:03.000Z,16.84
2023-04-27T21:58:35.992Z,16.44
2023-04-27T22:01:13.425Z,16.45
2023-04-27T22:03:43.266Z,16.75
2023-04-27T22:06:10.725Z,16.67
2023-04-27T22:08:41.379Z,16.66
2023-04-27T22:11:08.180Z,16.95
2023-04-27T22:13:35.323Z,17.00
2023-04-27T22:16:02.541Z,16.99
2023-04-27T22:18:34.510Z,16.95
2023-04-27T22:21:01.831Z,17.03
2023-04-27T22:23:30.780Z,17.12
2023-04-27T22:25:57.569Z,17.02
2023-04-27T22:28:30.285Z,16.73
2023-04-27T22:30:57.221Z,16.30
2023-04-27T22:33:23.998Z,16.35
2023-04-27T22:35:53.945Z,16.27
2023-04-27T22:38:23.391Z,16.27
2023-04-27T22:40:50.529Z,16.45
2023-04-27T22:43:17.360Z,15.64
2023-04-27T22:45:44.087Z,16.32
2023-04-27T22:48:11.167Z,15.72
2023-04-27T22:50:37.963Z,16.07
2023-04-27T22:53:04.873Z,15.69
2023-04-27T22:55:31.762Z,16.11
2023-04-27T22:57:58.662Z,15.66
2023-04-27T23:00:26.249Z,15.53
2023-04-27T23:02:53.472Z,15.69
2023-04-27T23:05:20.346Z,16.11
2023-04-27T23:07:47.150Z,15.96
2023-04-27T23:10:15.234Z,15.48
2023-04-27T23:12:42.190Z,16.12
2023-04-27T23:15:09.535Z,15.74
2023-04-27T23:17:36.450Z,15.15
2023-04-27T23:20:20.477Z,15.59
2023-04-27T23:22:53.914Z,16.19
2023-04-27T23:25:20.909Z,16.36
2023-04-27T23:27:48.945Z,16.47
2023-04-27T23:30:17.326Z,16.36
2023-04-27T23:32:44.057Z,16.50
2023-04-27T23:35:10.924Z,16.25
2023-04-27T23:37:38.180Z,16.20
2023-04-27T23:40:06.359Z,16.46
2023-04-27T23:42:33.439Z,16.62
2023-04-27T23:45:00.350Z,16.79
2023-04-27T23:47:27.207Z,16.69
2023-04-27T23:49:53.980Z,16.82
2023-04-27T23:52:21.123Z,16.81
2023-04-27T23:54:47.897Z,16.75
2023-04-27T23:57:15.814Z,16.53
2023-04-27T23:59:43.314Z,16.83
